Terminal Aerodrome Forecast
Issued by NWS

Home | Current Version | Previous Version | Text Only | Print | Product List | Glossary On
Versions: 1 2 3 4 5 6 7 8 9 10 11 12 13
227
FTUS42 TJSJ 082343
TAFJBQ
TAF
TJBQ 082343Z 0900/0924 10008KT P6SM FEW030
     FM091300 08015KT P6SM FEW030 FEW060
     FM092300 09008KT P6SM SCT025
      AMD NOT SKED 0902/0911=

USA.gov is the U.S. government's official web portal to all federal, state and local government web resources and services.